Terminal Aerodrome Forecast
Issued by NWS Grand Rapids, MI

Home | Current Version | Previous Version | Text Only | Print | Product List | Glossary On
Versions: 1 2 3 4 5 6 7 8 9 10 11 12 13 14 15 16 17
984
FTUS43 KGRR 280648 AAA
TAFGRR
TAF AMD
KGRR 280648Z 2807/2906 25012G20KT P6SM OVC030
     FM281000 24009KT P6SM BKN035
     FM290000 33007KT 6SM -RA OVC050
     FM290200 02006KT 6SM -RA OVC025=

USA.gov is the U.S. government's official web portal to all federal, state and local government web resources and services.